Caledonia, Illinois
Current Conditions -  °F | °C
As of 11:54 AM on Thursday 30 Oct 2014 (Local Time) from KRFD Reporting Station
Overcast Overcast  
Wind Chill: 43°   Ceiling: 8000
Heat Index: 47°   Visibility: 10mi
Dew Point: 34°   Wind: 9mph
Humidity: 61%   Direction: 210°SSW
Pressure: 30.12"   Gusts: NA
Location:  42.37°N, 88.89°W
Report Text: KRFD 301654Z 21008KT 10SM BKN080 BKN100 OVC150 08/01 A3012 RMK AO2 SLP204 T00830011
Loading
Personal Weather Stations






























Interactive Weather Map
Tropical Storm Tracking
New forecast layout! Learn more

10-Day Weather Forecast

Advertisements
Track Severe Weather on mobile